createdAt,value
2018-12-04T00:01:00.547Z,11.00
2018-12-04T00:03:28.226Z,10.65
2018-12-04T00:05:55.429Z,12.13
2018-12-04T00:08:22.881Z,12.10
2018-12-04T00:10:50.346Z,10.63
2018-12-04T00:13:17.647Z,10.40
2018-12-04T00:15:45.203Z,9.18
2018-12-04T00:18:12.703Z,7.65
2018-12-04T00:20:40.130Z,8.03
2018-12-04T00:23:07.661Z,7.92
2018-12-04T00:25:34.688Z,8.05
2018-12-04T00:28:01.892Z,9.23
2018-12-04T00:30:31.566Z,8.83
2018-12-04T00:32:59.323Z,8.48
2018-12-04T00:35:26.961Z,8.33
2018-12-04T00:37:55.179Z,9.15
2018-12-04T00:40:23.813Z,10.80
2018-12-04T00:42:51.045Z,8.28
2018-12-04T00:45:18.308Z,8.85
2018-12-04T00:47:45.569Z,8.05
2018-12-04T00:50:13.119Z,8.75
2018-12-04T00:52:40.445Z,8.13
2018-12-04T00:55:07.385Z,6.95
2018-12-04T00:57:34.534Z,9.90
2018-12-04T01:00:01.991Z,8.25
2018-12-04T01:02:29.008Z,8.15
2018-12-04T01:04:57.007Z,8.58
2018-12-04T01:07:24.273Z,8.05
2018-12-04T01:09:51.487Z,7.72
2018-12-04T01:12:18.610Z,7.45
2018-12-04T01:14:45.909Z,7.55
2018-12-04T01:17:13.504Z,7.97
2018-12-04T01:19:40.633Z,7.47
2018-12-04T01:22:07.830Z,7.87
2018-12-04T01:24:34.670Z,7.42
2018-12-04T01:27:01.783Z,5.95
2018-12-04T01:29:29.170Z,6.83
2018-12-04T01:31:56.857Z,7.03
2018-12-04T01:34:23.863Z,6.50
2018-12-04T01:36:51.054Z,6.28
2018-12-04T01:39:17.844Z,5.85
2018-12-04T01:41:45.798Z,6.30
2018-12-04T01:44:13.074Z,6.80
2018-12-04T01:46:40.455Z,6.15
2018-12-04T01:49:07.420Z,6.75
2018-12-04T01:51:34.800Z,6.58
2018-12-04T01:54:02.065Z,6.03
2018-12-04T01:56:29.374Z,5.85
2018-12-04T01:58:56.842Z,5.90
2018-12-04T02:01:23.879Z,6.28
2018-12-04T02:03:50.645Z,5.15
2018-12-04T02:06:18.292Z,6.90
2018-12-04T02:08:46.172Z,7.42
2018-12-04T02:11:13.289Z,8.25
2018-12-04T02:13:40.771Z,6.95
2018-12-04T02:16:08.060Z,7.40
2018-12-04T02:18:35.220Z,8.05
2018-12-04T02:21:02.702Z,7.30
2018-12-04T02:23:29.901Z,7.45
2018-12-04T02:25:57.166Z,7.28
2018-12-04T02:28:24.638Z,7.97
2018-12-04T02:30:52.041Z,7.62
2018-12-04T02:33:19.264Z,7.92
2018-12-04T02:35:46.520Z,7.97
2018-12-04T02:38:14.611Z,6.90
2018-12-04T02:40:41.605Z,7.55
2018-12-04T02:43:08.571Z,7.83
2018-12-04T02:45:36.061Z,7.60
2018-12-04T02:48:03.565Z,8.05
2018-12-04T02:50:30.612Z,8.43
2018-12-04T02:52:58.616Z,8.58
2018-12-04T02:55:26.298Z,8.23
2018-12-04T02:57:53.811Z,6.92
2018-12-04T03:00:20.993Z,7.80
2018-12-04T03:02:48.392Z,8.10
2018-12-04T03:05:15.249Z,8.48
2018-12-04T03:07:42.681Z,9.40
2018-12-04T03:10:09.917Z,8.10
2018-12-04T03:12:37.906Z,8.03
2018-12-04T03:15:05.007Z,8.55
2018-12-04T03:17:32.351Z,8.00
2018-12-04T03:19:59.311Z,9.25
2018-12-04T03:22:26.378Z,8.75
2018-12-04T03:24:53.412Z,8.65
2018-12-04T03:27:20.601Z,8.75
2018-12-04T03:29:47.493Z,8.75
2018-12-04T03:32:14.761Z,9.85
2018-12-04T03:34:41.739Z,8.88
2018-12-04T03:37:09.534Z,9.80
2018-12-04T03:39:36.790Z,8.85
2018-12-04T03:42:04.220Z,8.95
2018-12-04T03:44:31.488Z,8.45
2018-12-04T03:46:58.920Z,8.70
2018-12-04T03:49:25.898Z,7.47
2018-12-04T03:51:52.972Z,8.00
2018-12-04T03:54:20.275Z,7.37
2018-12-04T03:56:48.524Z,9.90
2018-12-04T03:59:15.825Z,8.35
2018-12-04T04:01:43.741Z,8.18
2018-12-04T04:04:11.173Z,9.25
2018-12-04T04:06:39.359Z,8.05
2018-12-04T04:09:06.783Z,8.20
2018-12-04T04:11:34.150Z,12.47
2018-12-04T04:14:02.063Z,13.15
2018-12-04T04:16:29.407Z,11.35
2018-12-04T04:18:59.124Z,10.20
2018-12-04T04:21:26.516Z,10.05
2018-12-04T04:23:54.370Z,9.50
2018-12-04T04:26:21.835Z,8.65
2018-12-04T04:28:50.884Z,9.20
2018-12-04T04:31:21.516Z,9.25
2018-12-04T04:33:50.426Z,9.35
2018-12-04T04:36:17.629Z,9.00
2018-12-04T04:38:45.166Z,8.88
2018-12-04T04:41:12.455Z,10.30
2018-12-04T04:43:39.538Z,7.67
2018-12-04T04:46:07.021Z,7.22
2018-12-04T04:48:34.685Z,8.33
2018-12-04T04:51:01.888Z,6.50
2018-12-04T04:53:29.942Z,7.53
2018-12-04T04:55:57.009Z,8.88
2018-12-04T04:58:24.479Z,6.50
2018-12-04T05:00:51.661Z,6.45
2018-12-04T05:03:19.345Z,5.83
2018-12-04T05:05:48.814Z,6.33
2018-12-04T05:08:16.797Z,6.30
2018-12-04T05:10:44.642Z,7.42
2018-12-04T05:13:12.366Z,6.05
2018-12-04T05:15:40.140Z,6.40
2018-12-04T05:18:09.122Z,5.83
2018-12-04T05:20:37.002Z,6.37
2018-12-04T05:23:04.526Z,10.50
2018-12-04T05:25:31.747Z,7.08
2018-12-04T05:27:59.333Z,7.95
2018-12-04T05:30:26.768Z,7.20
2018-12-04T05:32:54.324Z,9.10
2018-12-04T05:35:21.426Z,7.45
2018-12-04T05:37:49.095Z,7.50
2018-12-04T05:40:16.827Z,8.70
2018-12-04T05:42:44.314Z,8.08
2018-12-04T05:45:11.823Z,7.22
2018-12-04T05:47:39.187Z,8.20
2018-12-04T05:50:06.443Z,6.95
2018-12-04T05:52:35.002Z,8.20
2018-12-04T05:55:02.935Z,8.45
2018-12-04T05:57:30.136Z,7.72
2018-12-04T05:59:58.033Z,7.80
2018-12-04T06:02:25.653Z,7.87
2018-12-04T06:04:53.259Z,8.28
2018-12-04T06:07:20.685Z,7.75
2018-12-04T06:09:48.381Z,10.70
2018-12-04T06:12:15.824Z,13.10
2018-12-04T06:14:43.816Z,13.08
2018-12-04T06:17:12.032Z,15.85
2018-12-04T06:19:39.261Z,17.92
2018-12-04T06:22:06.423Z,16.02
2018-12-04T06:24:34.454Z,18.02
2018-12-04T06:27:02.448Z,17.27
2018-12-04T06:29:29.980Z,16.95
2018-12-04T06:31:57.712Z,17.23
2018-12-04T06:34:25.401Z,16.07
2018-12-04T06:36:52.602Z,13.80
2018-12-04T06:39:20.206Z,8.73
2018-12-04T06:41:47.229Z,8.40
2018-12-04T06:44:14.455Z,7.67
2018-12-04T06:46:41.983Z,6.72
2018-12-04T06:49:11.372Z,7.47
2018-12-04T06:51:39.342Z,7.25
2018-12-04T06:54:07.433Z,8.00
2018-12-04T06:56:35.427Z,7.15
2018-12-04T06:59:02.725Z,7.65
2018-12-04T07:01:29.761Z,8.23
2018-12-04T07:03:57.174Z,7.87
2018-12-04T07:06:24.810Z,8.35
2018-12-04T07:08:52.003Z,9.38
2018-12-04T07:11:19.049Z,8.58
2018-12-04T07:13:46.793Z,9.20
2018-12-04T07:16:14.372Z,9.43
2018-12-04T07:18:41.647Z,10.43
2018-12-04T07:21:08.780Z,12.53
2018-12-04T07:23:37.116Z,13.05
2018-12-04T07:26:04.854Z,14.30
2018-12-04T07:28:32.132Z,14.47
2018-12-04T07:30:59.420Z,12.88
2018-12-04T07:33:26.705Z,11.55
2018-12-04T07:35:53.539Z,11.55
2018-12-04T07:38:20.826Z,10.88
2018-12-04T07:40:47.782Z,10.50
2018-12-04T07:43:15.191Z,9.95
2018-12-04T07:45:42.863Z,9.98
2018-12-04T07:48:10.499Z,8.18
2018-12-04T07:50:37.755Z,8.80
2018-12-04T07:53:05.106Z,8.85
2018-12-04T07:55:32.542Z,10.25
2018-12-04T07:58:00.135Z,8.98
2018-12-04T08:00:27.176Z,9.08
2018-12-04T08:02:54.297Z,8.33
2018-12-04T08:05:21.491Z,10.93
2018-12-04T08:07:48.687Z,13.78
2018-12-04T08:10:15.882Z,11.65
2018-12-04T08:12:42.922Z,10.35
2018-12-04T08:15:10.386Z,11.25
2018-12-04T08:17:37.528Z,11.28
2018-12-04T08:20:05.115Z,11.22
2018-12-04T08:22:32.358Z,12.33
2018-12-04T08:24:59.706Z,11.20
2018-12-04T08:27:26.943Z,11.35
2018-12-04T08:29:53.976Z,11.08
2018-12-04T08:32:21.167Z,9.83
2018-12-04T08:34:48.613Z,9.85
2018-12-04T08:37:15.602Z,10.78
2018-12-04T08:39:43.102Z,9.25
2018-12-04T08:42:10.454Z,9.93
2018-12-04T08:44:37.983Z,10.75
2018-12-04T08:47:05.323Z,10.70
2018-12-04T08:49:33.683Z,13.40
2018-12-04T08:52:01.303Z,13.00
2018-12-04T08:54:28.976Z,14.93
2018-12-04T08:56:55.933Z,13.25
2018-12-04T08:59:23.077Z,14.03
2018-12-04T09:01:50.344Z,14.00
2018-12-04T09:04:19.743Z,15.15
2018-12-04T09:06:46.950Z,12.63
2018-12-04T09:09:13.911Z,13.93
2018-12-04T09:11:41.411Z,12.47
2018-12-04T09:14:08.591Z,13.72
2018-12-04T09:16:35.572Z,13.53
2018-12-04T09:19:03.085Z,13.90
2018-12-04T09:21:30.182Z,12.82
2018-12-04T09:23:57.093Z,12.15
2018-12-04T09:26:24.172Z,12.93
2018-12-04T09:28:51.046Z,12.80
2018-12-04T09:31:19.314Z,13.20
2018-12-04T09:33:46.596Z,11.88
2018-12-04T09:36:14.295Z,13.83
2018-12-04T09:38:41.802Z,11.50
2018-12-04T09:41:08.922Z,11.75
2018-12-04T09:43:35.982Z,12.58
2018-12-04T09:46:02.954Z,10.53
2018-12-04T09:48:29.719Z,10.90
2018-12-04T09:50:56.659Z,11.20
2018-12-04T09:53:25.288Z,10.80
2018-12-04T09:55:52.460Z,9.98
2018-12-04T09:58:19.443Z,9.98
2018-12-04T10:00:46.603Z,9.48
2018-12-04T10:03:13.463Z,9.00
2018-12-04T10:05:40.863Z,8.90
2018-12-04T10:08:07.903Z,8.95
2018-12-04T10:10:35.096Z,9.48
2018-12-04T10:13:02.045Z,8.83
2018-12-04T10:15:28.911Z,8.98
2018-12-04T10:17:55.883Z,7.50
2018-12-04T10:20:22.742Z,7.12
2018-12-04T10:22:49.827Z,7.37
2018-12-04T10:25:16.667Z,8.05
2018-12-04T10:27:43.550Z,7.40
2018-12-04T10:30:10.507Z,8.03
2018-12-04T10:32:37.998Z,6.67
2018-12-04T10:35:05.350Z,8.18
2018-12-04T10:37:33.042Z,7.10
2018-12-04T10:40:00.008Z,7.10
2018-12-04T10:42:26.867Z,7.25
2018-12-04T10:44:54.077Z,7.50
2018-12-04T10:47:20.973Z,8.08
2018-12-04T10:49:48.093Z,7.15
2018-12-04T10:52:15.358Z,7.50
2018-12-04T10:54:42.297Z,8.88
2018-12-04T10:57:09.905Z,6.72
2018-12-04T10:59:36.977Z,7.40
2018-12-04T11:02:03.946Z,7.08
2018-12-04T11:04:30.801Z,7.97
2018-12-04T11:06:58.701Z,7.70
2018-12-04T11:09:25.464Z,6.37
2018-12-04T11:11:52.422Z,7.22
2018-12-04T11:14:19.302Z,6.75
2018-12-04T11:16:46.253Z,7.17
2018-12-04T11:19:14.137Z,7.15
2018-12-04T11:21:41.017Z,7.30
2018-12-04T11:24:08.077Z,6.67
2018-12-04T11:26:34.977Z,7.53
2018-12-04T11:29:03.174Z,6.62
2018-12-04T11:31:30.403Z,6.92
2018-12-04T11:33:58.143Z,7.05
2018-12-04T11:36:25.220Z,5.37
2018-12-04T11:38:52.334Z,6.45
2018-12-04T11:41:19.415Z,6.12
2018-12-04T11:43:46.363Z,6.12
2018-12-04T11:46:13.444Z,5.20
2018-12-04T11:48:40.355Z,5.00
2018-12-04T11:51:07.473Z,4.35
2018-12-04T11:53:34.456Z,4.65
2018-12-04T11:56:01.526Z,4.40
2018-12-04T11:58:28.583Z,5.10
2018-12-04T12:00:55.672Z,5.03
2018-12-04T12:03:22.927Z,6.05
2018-12-04T12:05:49.986Z,4.97
2018-12-04T12:08:16.971Z,5.60
2018-12-04T12:10:43.968Z,5.22
2018-12-04T12:13:10.883Z,5.53
2018-12-04T12:15:37.884Z,5.47
2018-12-04T12:18:04.739Z,7.30
2018-12-04T12:20:31.691Z,5.58
2018-12-04T12:22:58.571Z,6.53
2018-12-04T12:25:25.438Z,5.70
2018-12-04T12:27:52.300Z,6.12
2018-12-04T12:30:19.253Z,5.15
2018-12-04T12:32:46.129Z,5.78
2018-12-04T12:35:13.092Z,6.78
2018-12-04T12:37:40.478Z,5.65
2018-12-04T12:40:07.224Z,5.55
2018-12-04T12:42:34.202Z,5.97
2018-12-04T12:45:01.074Z,5.37
2018-12-04T12:47:28.121Z,6.22
2018-12-04T12:49:55.712Z,6.55
2018-12-04T12:52:22.676Z,6.42
2018-12-04T12:54:49.646Z,6.40
2018-12-04T12:57:16.520Z,5.47
2018-12-04T12:59:43.468Z,4.40
2018-12-04T13:02:10.347Z,4.40
2018-12-04T13:04:37.616Z,5.22
2018-12-04T13:07:04.376Z,4.25
2018-12-04T13:09:31.160Z,4.45
2018-12-04T13:11:58.220Z,3.95
2018-12-04T13:14:25.187Z,4.65
2018-12-04T13:16:52.254Z,4.60
2018-12-04T13:19:19.836Z,5.28
2018-12-04T13:21:46.688Z,4.83
2018-12-04T13:24:13.560Z,5.75
2018-12-04T13:26:40.418Z,5.85
2018-12-04T13:29:07.186Z,8.00
2018-12-04T13:31:34.046Z,7.97
2018-12-04T13:34:00.914Z,7.83
2018-12-04T13:36:27.774Z,6.65
2018-12-04T13:38:54.638Z,6.42
2018-12-04T13:41:21.532Z,6.20
2018-12-04T13:43:48.588Z,8.30
2018-12-04T13:46:15.542Z,9.23
2018-12-04T13:48:42.533Z,10.45
2018-12-04T13:51:09.416Z,10.93
2018-12-04T13:53:36.358Z,8.83
2018-12-04T13:56:03.319Z,9.80
2018-12-04T13:58:30.580Z,8.93
2018-12-04T14:00:57.553Z,6.15
2018-12-04T14:03:24.532Z,5.78
2018-12-04T14:05:52.630Z,5.72
2018-12-04T14:08:20.089Z,5.03
2018-12-04T14:10:48.194Z,6.55
2018-12-04T14:13:15.069Z,5.80
2018-12-04T14:15:41.928Z,6.10
2018-12-04T14:18:08.775Z,5.40
2018-12-04T14:20:35.665Z,6.15
2018-12-04T14:23:02.507Z,5.85
2018-12-04T14:25:29.376Z,6.58
2018-12-04T14:27:56.364Z,9.68
2018-12-04T14:30:23.302Z,9.08
2018-12-04T14:32:50.587Z,8.80
2018-12-04T14:35:17.568Z,8.45
2018-12-04T14:37:44.828Z,8.75
2018-12-04T14:40:11.693Z,9.78
2018-12-04T14:42:38.750Z,9.23
2018-12-04T14:45:05.642Z,8.78
2018-12-04T14:47:32.709Z,10.00
2018-12-04T14:49:59.672Z,9.20
2018-12-04T14:52:26.735Z,9.50
2018-12-04T14:54:53.794Z,9.60
2018-12-04T14:57:21.097Z,15.08
2018-12-04T14:59:48.142Z,14.15
2018-12-04T15:02:15.043Z,14.68
2018-12-04T15:04:41.872Z,13.13
2018-12-04T15:07:08.831Z,14.18
2018-12-04T15:09:35.705Z,15.90
2018-12-04T15:12:02.671Z,14.15
2018-12-04T15:14:29.870Z,16.00
2018-12-04T15:16:56.932Z,13.88
2018-12-04T15:19:23.895Z,14.47
2018-12-04T15:21:50.750Z,13.10
2018-12-04T15:24:17.612Z,13.60
2018-12-04T15:26:44.479Z,11.50
2018-12-04T15:29:11.674Z,12.23
2018-12-04T15:31:38.954Z,13.53
2018-12-04T15:34:05.724Z,17.27
2018-12-04T15:36:32.979Z,13.18
2018-12-04T15:38:59.750Z,11.18
2018-12-04T15:41:26.682Z,9.08
2018-12-04T15:43:53.606Z,8.28
2018-12-04T15:46:20.554Z,8.80
2018-12-04T15:48:47.412Z,9.08
2018-12-04T15:51:14.360Z,8.93
2018-12-04T15:53:42.579Z,8.38
2018-12-04T15:56:09.412Z,9.83
2018-12-04T15:58:36.174Z,11.05
2018-12-04T16:01:03.174Z,10.40
2018-12-04T16:03:30.198Z,10.40
2018-12-04T16:05:57.385Z,11.95
2018-12-04T16:08:24.257Z,14.63
2018-12-04T16:10:51.214Z,10.43
2018-12-04T16:13:18.275Z,13.30
2018-12-04T16:15:45.249Z,12.73
2018-12-04T16:18:12.212Z,10.70
2018-12-04T16:20:39.128Z,9.65
2018-12-04T16:23:08.100Z,9.23
2018-12-04T16:25:34.968Z,9.28
2018-12-04T16:28:01.974Z,9.30
2018-12-04T16:30:29.093Z,8.10
2018-12-04T16:32:56.168Z,9.23
2018-12-04T16:35:23.140Z,7.65
2018-12-04T16:37:50.304Z,7.00
2018-12-04T16:40:17.258Z,7.15
2018-12-04T16:42:44.333Z,7.45
2018-12-04T16:45:11.101Z,8.68
2018-12-04T16:47:38.177Z,9.03
2018-12-04T16:50:05.017Z,8.95
2018-12-04T16:52:32.154Z,9.63
2018-12-04T16:54:59.277Z,9.40
2018-12-04T16:57:26.348Z,11.18
2018-12-04T16:59:53.183Z,9.68
2018-12-04T17:02:20.075Z,9.95
2018-12-04T17:04:46.847Z,10.35
2018-12-04T17:07:13.816Z,13.60
2018-12-04T17:09:40.765Z,12.30
2018-12-04T17:12:07.624Z,14.65
2018-12-04T17:14:34.605Z,12.53
2018-12-04T17:17:04.585Z,14.90
2018-12-04T17:19:31.695Z,17.32
2018-12-04T17:21:58.476Z,17.35
2018-12-04T17:24:26.419Z,17.42
2018-12-04T17:26:53.242Z,18.87
2018-12-04T17:29:20.697Z,19.45
2018-12-04T17:31:47.390Z,19.52
2018-12-04T17:34:14.531Z,17.87
2018-12-04T17:36:41.301Z,20.30
2018-12-04T17:39:08.200Z,18.00
2018-12-04T17:41:35.067Z,20.05
2018-12-04T17:44:02.108Z,18.65
2018-12-04T17:46:29.066Z,17.80
2018-12-04T17:48:56.227Z,18.75
2018-12-04T17:51:23.727Z,18.23
2018-12-04T17:53:50.589Z,18.65
2018-12-04T17:56:17.447Z,16.75
2018-12-04T17:58:44.847Z,13.90
2018-12-04T18:01:11.995Z,12.93
2018-12-04T18:03:39.202Z,10.58
2018-12-04T18:06:06.242Z,12.07
2018-12-04T18:08:33.657Z,12.45
2018-12-04T18:11:00.871Z,13.00
2018-12-04T18:13:28.621Z,14.15
2018-12-04T18:15:55.845Z,13.05
2018-12-04T18:18:22.971Z,14.38
2018-12-04T18:20:50.366Z,16.60
2018-12-04T18:23:17.743Z,16.73
2018-12-04T18:25:44.764Z,14.00
2018-12-04T18:28:12.051Z,11.53
2018-12-04T18:30:39.182Z,9.13
2018-12-04T18:33:06.372Z,10.20
2018-12-04T18:35:34.646Z,10.53
2018-12-04T18:38:02.629Z,9.35
2018-12-04T18:40:30.808Z,12.03
2018-12-04T18:42:57.875Z,27.07
2018-12-04T18:45:25.283Z,33.18
2018-12-04T18:47:52.535Z,68.35
2018-12-04T18:50:19.636Z,41.10
2018-12-04T18:52:46.707Z,35.75
2018-12-04T18:55:13.747Z,25.77
2018-12-04T18:57:41.812Z,34.33
2018-12-04T19:00:09.838Z,50.17
2018-12-04T19:02:37.347Z,46.50
2018-12-04T19:05:04.382Z,54.95
2018-12-04T19:07:31.455Z,38.73
2018-12-04T19:09:58.434Z,41.68
2018-12-04T19:12:25.569Z,41.05
2018-12-04T19:14:53.165Z,33.40
2018-12-04T19:17:20.139Z,30.90
2018-12-04T19:19:47.202Z,30.25
2018-12-04T19:22:14.086Z,29.18
2018-12-04T19:24:41.340Z,25.70
2018-12-04T19:27:08.454Z,25.65
2018-12-04T19:29:35.805Z,26.25
2018-12-04T19:32:02.872Z,30.05
2018-12-04T19:34:29.832Z,29.37
2018-12-04T19:36:56.815Z,31.25
2018-12-04T19:39:23.976Z,30.97
2018-12-04T19:41:51.335Z,31.17
2018-12-04T19:44:18.542Z,28.40
2018-12-04T19:46:46.217Z,18.25
2018-12-04T19:49:13.586Z,18.67
2018-12-04T19:51:42.205Z,12.40
2018-12-04T19:54:09.768Z,12.47
2018-12-04T19:56:37.035Z,14.73
2018-12-04T19:59:07.659Z,12.05
2018-12-04T20:01:35.073Z,11.50
2018-12-04T20:04:02.165Z,12.70
2018-12-04T20:06:29.184Z,13.43
2018-12-04T20:08:56.300Z,11.70
2018-12-04T20:11:24.559Z,10.35
2018-12-04T20:13:51.840Z,10.43
2018-12-04T20:16:18.937Z,16.87
2018-12-04T20:18:46.147Z,23.98
2018-12-04T20:21:13.977Z,23.80
2018-12-04T20:23:41.321Z,18.45
2018-12-04T20:26:08.721Z,13.93
2018-12-04T20:28:35.582Z,11.50
2018-12-04T20:31:02.541Z,11.03
2018-12-04T20:33:30.942Z,11.57
2018-12-04T20:35:57.902Z,11.43
2018-12-04T20:38:25.722Z,16.60
2018-12-04T20:40:53.502Z,42.50
2018-12-04T20:43:21.001Z,23.83
2018-12-04T20:45:48.359Z,24.72
2018-12-04T20:48:15.399Z,25.20
2018-12-04T20:50:42.538Z,22.65
2018-12-04T20:53:09.679Z,18.95
2018-12-04T20:55:38.379Z,26.45
2018-12-04T20:58:06.021Z,26.70
2018-12-04T21:00:33.107Z,25.43
2018-12-04T21:03:00.741Z,22.48
2018-12-04T21:05:29.261Z,30.95
2018-12-04T21:10:31.322Z,25.35
2018-12-04T21:12:58.619Z,24.43
2018-12-04T21:15:25.961Z,25.90
2018-12-04T21:17:53.049Z,28.50
2018-12-04T21:20:20.001Z,27.30
2018-12-04T21:22:47.358Z,22.80
2018-12-04T21:25:14.749Z,17.42
2018-12-04T21:27:41.660Z,18.65
2018-12-04T21:30:09.021Z,19.00
2018-12-04T21:32:36.361Z,20.40
2018-12-04T21:35:03.752Z,19.45
2018-12-04T21:37:30.908Z,18.77
2018-12-04T21:39:59.268Z,16.57
2018-12-04T21:42:31.408Z,14.55
2018-12-04T21:44:59.079Z,13.08
2018-12-04T21:47:25.937Z,15.00
2018-12-04T21:49:52.910Z,13.45
2018-12-04T21:52:20.896Z,12.43
2018-12-04T21:54:48.611Z,11.90
2018-12-04T21:57:15.962Z,12.45
2018-12-04T21:59:43.392Z,12.55
2018-12-04T22:02:10.464Z,13.48
2018-12-04T22:04:37.827Z,12.13
2018-12-04T22:07:05.104Z,12.60
2018-12-04T22:09:33.049Z,13.68
2018-12-04T22:12:00.553Z,14.10
2018-12-04T22:14:27.812Z,14.07
2018-12-04T22:16:56.538Z,13.85
2018-12-04T22:19:24.110Z,11.40
2018-12-04T22:21:51.796Z,14.63
2018-12-04T22:24:19.042Z,13.98
2018-12-04T22:26:46.362Z,15.48
2018-12-04T22:29:13.623Z,15.93
2018-12-04T22:31:40.661Z,17.05
2018-12-04T22:34:08.865Z,17.23
2018-12-04T22:36:36.222Z,17.17
2018-12-04T22:39:03.185Z,16.85
2018-12-04T22:41:30.971Z,19.05
2018-12-04T22:43:58.296Z,19.12
2018-12-04T22:46:25.515Z,18.98
2018-12-04T22:48:52.796Z,21.15
2018-12-04T22:51:19.959Z,25.15
2018-12-04T22:53:47.442Z,19.55
2018-12-04T22:56:14.302Z,23.15
2018-12-04T22:58:41.271Z,25.75
2018-12-04T23:01:10.303Z,27.95
2018-12-04T23:03:37.522Z,26.77
2018-12-04T23:06:05.186Z,26.40
2018-12-04T23:08:32.624Z,24.80
2018-12-04T23:11:01.185Z,23.80
2018-12-04T23:13:29.420Z,24.27
2018-12-04T23:15:58.235Z,22.98
2018-12-04T23:18:26.046Z,23.40
2018-12-04T23:20:53.512Z,22.87
2018-12-04T23:23:21.109Z,21.10
2018-12-04T23:25:48.560Z,19.30
2018-12-04T23:28:15.889Z,20.20
2018-12-04T23:30:43.502Z,19.65
2018-12-04T23:33:11.091Z,17.75
2018-12-04T23:35:39.172Z,16.75
2018-12-04T23:38:06.053Z,15.58
2018-12-04T23:40:33.671Z,15.83
2018-12-04T23:43:00.941Z,14.40
2018-12-04T23:45:28.580Z,16.50
2018-12-04T23:47:58.651Z,16.77
2018-12-04T23:50:27.423Z,16.87
2018-12-04T23:52:54.393Z,14.25
2018-12-04T23:55:22.067Z,15.10
2018-12-04T23:57:49.564Z,12.33
